Board Camp, AR

8:16 AM CST en Enero 25, 2015 (GMT -0600)
Mena | Change Station
CLOSE
Current Station
Aeropuerto
Location: Mena,
Altura: 1079 ft
Estaciones meteorológicas cercanas
Aviso en curso: Lake Wind Advisory

Alt 1079 ft 34.55 °N, 94.20 °W | Updated 21 minutes ago

Parcialmente nublado
Parcialmente nublado
48 ° F
Sensación térmica 48 ° F
N
12
Viento Variable Viento desde Oeste

Hoy
Alta -- | Baja -- ° F
--% Posibilidad de precipitaciones
Ayer
Alta -- | Baja -- ° F
Precip. -- pul
7:19 AM 5:39 PM
Creciente, 32% visible
Presión 29.82 pul
Visibilidad 10.0 Millas
Nubes Despejado
Punto de rocío 37 ° F
Humedad 66%
Precipitaciones 0.00 pul
Espesor de la nieve No disponible.
UV 0 de una escala de 12
Polen 5.40 de una escala de 12
Calidad del aire No disponible.
Flu Activity No disponible.
METAR KMEZ 251355Z AUTO 27010KT 10SM CLR 09/03 A2982 RMK AO2

More Conditions Fewer Conditions

Presión 29.82 pul
Visibilidad 10.0 Millas
Nubes Despejado
Punto de rocío 37 ° F
Humedad 66%
Precipitaciones 0.00 pul
Espesor de la nieve No disponible.
UV 0 de una escala de 12
Polen 5.40 de una escala de 12
Calidad del aire No disponible.
Flu Activity No disponible.
METAR KMEZ 251355Z AUTO 27010KT 10SM CLR 09/03 A2982 RMK AO2

More Conditions Fewer Conditions

10-Day Weather Forecast

Almanac

Astronomía

Jan. 25, 2015 Salida Puesta
Hora real
Crepúsculo civil
Crepúsculo náutico
Crepúsculo astronómico
Luna
Horas de luz
Horas de luz
Tomorrow will be .
, % of the Moon is Illuminated

Extremos de hoy

Máximos del estado Bajos del estado

Community

WunderPhotos

Upload Photos

1,789,893 ¡fotos cargadas!

WunderBlogs® & News

Nearby

Calidad del aire

  Calidad del aire Índice AQ Contaminante
Not available.

Grosos de nieve

Estación Profundido Altura

Actividad de terremotos

Ciudad Distance Mag. Tiempo y dato
Magnitud mínima muestra es 2,5.

Temperaturas de aguas costeras

Lugar Temperatura

Estaciones meteorológicas cercanas